Time;durP1;ratioP1;P1;durP2;ratioP2;P2;SDS_P1;SDS_P2;PMS_P1;PMS_P2;Temp;Humidity;BMP_temperature;BMP_pressure;BME280_temperature;BME280_humidity;BME280_pressure;Samples;Min_cycle;Max_cycle;Signal;HPM_P1;HPM_P2
2023/08/30 00:00:18;;;;;;;3.10;2.28;;;11.70;99.90;;;;;;5027143;28;20083;-60
2023/08/30 00:02:44;;;;;;;3.85;3.38;;;11.70;99.90;;;;;;5030069;28;20017;-58
2023/08/30 00:05:10;;;;;;;4.43;3.13;;;11.70;99.90;;;;;;5029024;28;20030;-57
2023/08/30 00:07:36;;;;;;;6.75;3.15;;;11.70;99.90;;;;;;5025631;28;20032;-59
2023/08/30 00:10:02;;;;;;;9.63;2.80;;;11.70;99.90;;;;;;5026786;28;20034;-60
2023/08/30 00:12:28;;;;;;;4.28;2.90;;;11.70;99.90;;;;;;5029962;28;20083;-60
2023/08/30 00:14:53;;;;;;;4.85;3.25;;;11.70;99.90;;;;;;5027143;28;20104;-59
2023/08/30 00:17:19;;;;;;;5.45;2.70;;;11.70;99.90;;;;;;5024968;28;20506;-59
2023/08/30 00:19:46;;;;;;;8.02;2.72;;;11.70;99.90;;;;;;5027450;28;20041;-59
2023/08/30 00:22:12;;;;;;;7.05;3.40;;;11.60;99.90;;;;;;5023585;28;20026;-60
2023/08/30 00:24:38;;;;;;;4.65;3.20;;;11.60;99.90;;;;;;5027699;28;20056;-59
2023/08/30 00:27:04;;;;;;;4.72;2.58;;;11.60;99.90;;;;;;5027202;28;20156;-60
2023/08/30 00:29:29;;;;;;;4.78;2.20;;;11.60;99.90;;;;;;5026647;28;20551;-58
2023/08/30 00:31:55;;;;;;;3.75;2.00;;;11.60;99.90;;;;;;5027848;28;20116;-58
2023/08/30 00:34:21;;;;;;;2.58;1.88;;;11.50;99.90;;;;;;5029007;28;20021;-59
2023/08/30 00:36:47;;;;;;;13.23;12.50;;;11.40;99.90;;;;;;5038247;28;20060;-59
2023/08/30 00:39:13;;;;;;;12.30;11.65;;;11.40;99.90;;;;;;5035314;28;20112;-58
2023/08/30 00:41:39;;;;;;;11.38;10.52;;;11.40;99.90;;;;;;5027775;28;20105;-58
2023/08/30 00:44:04;;;;;;;5.90;3.80;;;11.40;99.90;;;;;;5027617;28;20021;-57
2023/08/30 00:46:31;;;;;;;4.75;4.28;;;11.40;99.90;;;;;;5035433;28;20029;-59
2023/08/30 00:48:58;;;;;;;1999.90;999.90;;;11.30;99.90;;;;;;5033778;28;20053;-59
2023/08/30 00:51:24;;;;;;;1999.90;999.90;;;11.30;99.90;;;;;;5035497;28;20033;-60
2023/08/30 00:53:50;;;;;;;13.35;12.93;;;11.30;99.90;;;;;;5031111;28;20030;-60
2023/08/30 00:56:17;;;;;;;1999.90;999.90;;;11.30;99.90;;;;;;5025772;28;20079;-59
2023/08/30 00:58:43;;;;;;;1999.90;999.90;;;11.30;99.90;;;;;;5042196;28;20033;-58
2023/08/30 01:01:09;;;;;;;19.52;18.85;;;11.30;99.90;;;;;;5027752;28;20033;-59
2023/08/30 01:03:35;;;;;;;602.47;215.13;;;11.30;99.90;;;;;;5027391;28;20501;-59
2023/08/30 01:06:01;;;;;;;1999.90;999.90;;;11.30;99.90;;;;;;5028313;28;20033;-61
2023/08/30 01:08:27;;;;;;;188.35;101.65;;;11.30;99.90;;;;;;5026752;28;20109;-60
2023/08/30 01:11:01;;;;;;;1999.90;999.90;;;11.30;99.90;;;;;;5025696;28;20036;-60
2023/08/30 01:13:30;;;;;;;31.83;23.77;;;11.20;99.90;;;;;;5026366;28;20104;-60
2023/08/30 01:15:57;;;;;;;532.00;105.57;;;11.20;99.90;;;;;;5028903;28;20079;-57
2023/08/30 01:18:28;;;;;;;1999.90;999.90;;;11.30;99.90;;;;;;5028105;28;20014;-58
2023/08/30 01:20:55;;;;;;;1999.90;999.90;;;11.30;99.90;;;;;;5031222;28;20509;-60
2023/08/30 01:23:29;;;;;;;885.97;304.38;;;11.20;99.90;;;;;;5028792;28;20113;-58
2023/08/30 01:26:04;;;;;;;1999.90;999.90;;;11.30;99.90;;;;;;5026958;28;20042;-57
2023/08/30 01:28:31;;;;;;;1999.90;999.90;;;11.30;99.90;;;;;;5025198;28;20120;-59
2023/08/30 01:30:58;;;;;;;1999.90;999.90;;;11.30;99.90;;;;;;5029974;28;20026;-59
2023/08/30 01:33:27;;;;;;;1999.90;999.90;;;11.30;99.90;;;;;;5030637;28;20872;-58
2023/08/30 01:35:58;;;;;;;1999.90;999.90;;;11.20;99.90;;;;;;5030319;28;20873;-59
2023/08/30 01:38:27;;;;;;;1999.90;999.90;;;11.20;99.90;;;;;;5031083;28;20075;-59
2023/08/30 01:40:55;;;;;;;1999.90;999.90;;;11.10;99.90;;;;;;5031472;28;20029;-59
2023/08/30 01:43:21;;;;;;;1999.90;999.90;;;11.10;99.90;;;;;;5029156;28;20033;-60
2023/08/30 01:45:47;;;;;;;1999.90;999.90;;;11.00;99.90;;;;;;5030873;28;20025;-58
2023/08/30 01:48:17;;;;;;;1999.90;999.90;;;11.00;99.90;;;;;;5036925;28;20071;-59
2023/08/30 01:50:45;;;;;;;1999.90;999.90;;;11.00;99.90;;;;;;5030528;28;20080;-59
2023/08/30 01:53:13;;;;;;;1999.90;999.90;;;11.00;99.90;;;;;;5025103;28;20083;-57
2023/08/30 01:55:39;;;;;;;1999.90;999.90;;;10.90;99.90;;;;;;5024439;28;20034;-57
2023/08/30 01:58:06;;;;;;;1999.90;999.90;;;10.90;99.90;;;;;;5026564;28;20034;-58
2023/08/30 02:00:32;;;;;;;1999.90;999.90;;;10.90;99.90;;;;;;5031327;28;20109;-59
2023/08/30 02:02:57;;;;;;;131.90;119.07;;;10.80;99.90;;;;;;5030661;28;20060;-58
2023/08/30 02:05:23;;;;;;;1999.90;999.90;;;10.80;99.90;;;;;;5028444;28;20649;-59
2023/08/30 02:08:02;;;;;;;1999.90;999.90;;;10.80;99.90;;;;;;5026613;28;20050;-59
2023/08/30 02:10:37;;;;;;;1999.90;999.90;;;10.80;99.90;;;;;;5022823;28;21152;-58
2023/08/30 02:13:04;;;;;;;1999.90;999.90;;;10.90;99.90;;;;;;5033029;28;20025;-59
2023/08/30 02:15:33;;;;;;;1999.90;999.90;;;10.90;99.90;;;;;;5032125;28;20053;-59
2023/08/30 02:17:59;;;;;;;1999.90;999.90;;;10.90;99.90;;;;;;5020985;28;20036;-61
2023/08/30 02:20:25;;;;;;;1999.90;999.90;;;10.90;99.90;;;;;;5021165;28;20038;-59
2023/08/30 02:22:51;;;;;;;1999.90;999.90;;;10.90;99.90;;;;;;5017951;28;20040;-59
2023/08/30 02:25:17;;;;;;;1999.90;999.90;;;10.80;99.90;;;;;;5028767;28;20033;-59
2023/08/30 02:27:43;;;;;;;1999.90;999.90;;;10.80;99.90;;;;;;5022111;28;20057;-60
2023/08/30 02:30:08;;;;;;;1999.90;999.90;;;10.80;99.90;;;;;;5022716;28;20083;-58
2023/08/30 02:32:34;;;;;;;1999.90;999.90;;;10.80;99.90;;;;;;5022710;28;20471;-57
2023/08/30 02:35:00;;;;;;;1999.90;999.90;;;10.80;99.90;;;;;;5025882;28;20077;-58
2023/08/30 02:37:26;;;;;;;1999.90;999.90;;;10.80;99.90;;;;;;5023630;28;20037;-59
2023/08/30 02:39:51;;;;;;;1999.90;999.90;;;10.80;99.90;;;;;;5024782;28;20053;-60
2023/08/30 02:42:17;;;;;;;1999.90;999.90;;;10.70;99.90;;;;;;5025812;28;20083;-59
2023/08/30 02:44:43;;;;;;;1999.90;999.90;;;10.70;99.90;;;;;;5026641;28;20034;-60
2023/08/30 02:47:08;;;;;;;1999.90;999.90;;;10.70;99.90;;;;;;5022827;28;20477;-57
2023/08/30 02:49:34;;;;;;;1999.90;999.90;;;10.60;99.90;;;;;;5029553;28;20041;-59
2023/08/30 02:52:00;;;;;;;1999.90;999.90;;;10.60;99.90;;;;;;5025479;28;20438;-60
2023/08/30 02:54:25;;;;;;;1999.90;999.90;;;10.70;99.90;;;;;;5021478;28;20440;-58
2023/08/30 02:56:51;;;;;;;1999.90;999.90;;;10.70;99.90;;;;;;5022299;28;20018;-58
2023/08/30 02:59:16;;;;;;;1999.90;999.90;;;10.70;99.90;;;;;;5026118;28;20067;-59
2023/08/30 03:01:42;;;;;;;1999.90;999.90;;;10.80;99.90;;;;;;5028426;28;20068;-59
2023/08/30 03:04:08;;;;;;;1999.90;999.90;;;10.80;99.90;;;;;;5023838;28;20756;-60
2023/08/30 03:06:34;;;;;;;1999.90;999.90;;;10.80;99.90;;;;;;5024108;28;20109;-60
2023/08/30 03:09:01;;;;;;;1999.90;999.90;;;10.80;99.90;;;;;;5029948;28;20033;-59
2023/08/30 03:11:26;;;;;;;1999.90;999.90;;;10.90;99.90;;;;;;5024335;28;20536;-59
2023/08/30 03:13:54;;;;;;;1999.90;999.90;;;10.90;99.90;;;;;;5026945;28;20025;-59
2023/08/30 03:16:20;;;;;;;1999.90;999.90;;;10.90;99.90;;;;;;5028628;28;20551;-59
2023/08/30 03:18:46;;;;;;;1999.90;999.90;;;10.90;99.90;;;;;;5029557;28;20029;-59
2023/08/30 03:21:12;;;;;;;1999.90;999.90;;;10.90;99.90;;;;;;5027284;28;20565;-58
2023/08/30 03:23:38;;;;;;;1999.90;999.90;;;11.00;99.90;;;;;;5011840;28;20100;-59
2023/08/30 03:26:13;;;;;;;1999.90;999.90;;;11.00;99.90;;;;;;5022093;28;20025;-58
2023/08/30 03:28:40;;;;;;;1999.90;999.90;;;11.00;99.90;;;;;;5026534;28;20502;-58
2023/08/30 03:31:16;;;;;;;1999.90;999.90;;;11.10;99.90;;;;;;5022513;28;20520;-58
2023/08/30 03:33:42;;;;;;;1999.90;999.90;;;11.10;99.90;;;;;;5022528;28;20112;-60
2023/08/30 03:36:12;;;;;;;1999.90;999.90;;;11.10;99.90;;;;;;5025292;28;20071;-59
2023/08/30 03:38:38;;;;;;;1999.90;999.90;;;11.10;99.90;;;;;;5022235;28;20013;-57
2023/08/30 03:41:04;;;;;;;1999.90;999.90;;;11.20;99.90;;;;;;5020698;28;20034;-59
2023/08/30 03:43:31;;;;;;;1999.90;999.90;;;11.20;99.90;;;;;;5026801;28;20393;-59
2023/08/30 03:45:57;;;;;;;1999.90;999.90;;;11.20;99.90;;;;;;5032231;28;20127;-60
2023/08/30 03:48:23;;;;;;;1999.90;999.90;;;11.20;99.90;;;;;;5023610;28;20030;-59
2023/08/30 03:50:49;;;;;;;1999.90;999.90;;;11.20;99.90;;;;;;5022447;28;20557;-60
2023/08/30 03:53:14;;;;;;;86.15;76.25;;;11.20;99.90;;;;;;5022540;28;20064;-61
2023/08/30 03:55:41;;;;;;;29.67;28.20;;;11.20;99.90;;;;;;5024804;28;20524;-57
2023/08/30 03:58:06;;;;;;;160.35;142.93;;;11.10;99.90;;;;;;5025878;28;20044;-59
2023/08/30 04:00:32;;;;;;;453.88;32.20;;;11.20;99.90;;;;;;5027178;28;20029;-58
2023/08/30 04:02:58;;;;;;;716.08;66.10;;;11.10;99.90;;;;;;5027773;28;20026;-58
2023/08/30 04:05:23;;;;;;;384.27;164.57;;;11.10;99.90;;;;;;5027135;28;20029;-59
2023/08/30 04:07:49;;;;;;;1999.90;999.90;;;11.20;99.90;;;;;;5027637;28;20025;-59
2023/08/30 04:10:14;;;;;;;1553.10;603.05;;;11.20;99.90;;;;;;5027692;28;20022;-58
2023/08/30 04:12:40;;;;;;;25.50;3.22;;;11.20;99.90;;;;;;5029471;28;20033;-58
2023/08/30 04:15:06;;;;;;;9.77;2.95;;;11.20;99.90;;;;;;5027930;28;20025;-58
2023/08/30 04:17:32;;;;;;;14.65;3.08;;;11.20;99.90;;;;;;5028721;28;20113;-60
2023/08/30 04:19:57;;;;;;;59.83;3.73;;;11.20;99.90;;;;;;4986194;28;1151242;-59
2023/08/30 04:22:23;;;;;;;125.30;7.15;;;11.10;99.90;;;;;;5029845;28;20688;-59
2023/08/30 04:24:49;;;;;;;43.72;3.00;;;11.10;99.90;;;;;;5026747;28;20029;-60
2023/08/30 04:27:15;;;;;;;131.80;4.88;;;11.20;99.90;;;;;;5026986;28;20022;-59
2023/08/30 04:29:44;;;;;;;1999.90;999.90;;;11.20;99.90;;;;;;5024509;28;20125;-60
2023/08/30 04:32:10;;;;;;;1999.90;999.90;;;11.20;99.90;;;;;;5026007;28;20037;-57
2023/08/30 04:34:36;;;;;;;715.95;72.38;;;11.10;99.90;;;;;;5028216;28;20022;-59
2023/08/30 04:37:03;;;;;;;101.82;3.95;;;11.10;99.90;;;;;;5031496;28;20022;-60
2023/08/30 04:39:28;;;;;;;42.42;2.80;;;11.10;99.90;;;;;;5027604;28;20053;-59
2023/08/30 04:41:55;;;;;;;66.40;4.15;;;11.10;99.90;;;;;;5031686;28;20108;-61
2023/08/30 04:44:24;;;;;;;122.85;4.50;;;11.10;99.90;;;;;;5034417;28;20052;-59
2023/08/30 04:46:49;;;;;;;74.07;5.40;;;11.10;99.90;;;;;;5022292;28;20040;-59
2023/08/30 04:49:15;;;;;;;36.15;2.90;;;11.10;99.90;;;;;;5018380;28;20030;-58
2023/08/30 04:51:41;;;;;;;47.65;2.42;;;11.10;99.90;;;;;;5015393;28;20030;-58
2023/08/30 04:54:06;;;;;;;39.60;2.67;;;11.10;99.90;;;;;;5030557;28;20025;-59
2023/08/30 04:56:32;;;;;;;37.75;2.65;;;11.20;99.90;;;;;;5026400;28;20179;-58
2023/08/30 04:58:57;;;;;;;21.17;2.17;;;11.20;99.90;;;;;;5021424;28;20117;-57
2023/08/30 05:01:23;;;;;;;37.83;2.50;;;11.20;99.90;;;;;;5021958;28;20173;-59
2023/08/30 05:03:49;;;;;;;35.40;2.22;;;11.20;99.90;;;;;;5026928;28;20096;-59
2023/08/30 05:06:16;;;;;;;56.83;3.40;;;11.20;99.90;;;;;;5025888;28;20033;-57
2023/08/30 05:08:41;;;;;;;33.97;2.75;;;11.20;99.90;;;;;;5029253;28;20632;-57
2023/08/30 05:11:07;;;;;;;35.03;2.85;;;11.20;99.90;;;;;;5026564;28;20066;-58
2023/08/30 05:13:33;;;;;;;39.72;4.68;;;11.30;99.90;;;;;;5023064;28;20494;-59
2023/08/30 05:15:58;;;;;;;49.53;2.90;;;11.30;99.90;;;;;;5019036;28;20103;-60
2023/08/30 05:18:24;;;;;;;33.25;3.03;;;11.30;99.90;;;;;;5023660;28;20018;-59
2023/08/30 05:20:50;;;;;;;62.15;3.60;;;11.30;99.90;;;;;;5026386;28;20021;-60
2023/08/30 05:23:15;;;;;;;70.93;4.22;;;11.40;99.90;;;;;;5028197;28;20037;-59
2023/08/30 05:25:41;;;;;;;51.92;3.40;;;11.40;99.90;;;;;;5023235;28;20033;-60
2023/08/30 05:28:06;;;;;;;22.67;3.20;;;11.50;99.90;;;;;;5028781;28;20024;-59
2023/08/30 05:30:32;;;;;;;13.15;2.33;;;11.60;99.90;;;;;;5019742;28;20117;-59
2023/08/30 05:32:57;;;;;;;74.05;3.97;;;11.60;99.90;;;;;;5022309;28;20025;-60
2023/08/30 05:35:23;;;;;;;79.53;4.68;;;11.70;99.90;;;;;;5023487;28;20208;-61
2023/08/30 05:37:50;;;;;;;94.32;4.60;;;11.90;99.90;;;;;;5021042;28;20026;-60
2023/08/30 05:40:17;;;;;;;78.35;3.97;;;11.90;99.90;;;;;;5027327;28;20034;-58
2023/08/30 05:42:42;;;;;;;11.07;2.50;;;12.00;99.90;;;;;;5029584;28;20021;-61
2023/08/30 05:45:08;;;;;;;9.55;2.55;;;12.10;99.90;;;;;;5029070;28;20674;-59
2023/08/30 05:47:34;;;;;;;10.25;2.72;;;12.20;99.90;;;;;;5026895;28;20030;-58
2023/08/30 05:49:59;;;;;;;36.40;2.88;;;12.20;99.90;;;;;;5027816;28;20068;-60
2023/08/30 05:52:25;;;;;;;11.07;2.33;;;12.40;99.90;;;;;;5027176;28;20045;-60
2023/08/30 05:54:51;;;;;;;5.15;2.42;;;12.40;99.90;;;;;;5029333;28;20026;-58
2023/08/30 05:57:16;;;;;;;16.67;2.50;;;12.50;99.90;;;;;;5030268;28;20029;-59
2023/08/30 05:59:42;;;;;;;8.63;2.10;;;12.60;99.90;;;;;;5028484;28;20017;-58
2023/08/30 06:02:08;;;;;;;38.55;2.55;;;12.70;99.90;;;;;;5026832;28;20131;-60
2023/08/30 06:04:33;;;;;;;4.90;2.10;;;12.80;99.90;;;;;;5028009;28;20041;-59
2023/08/30 06:06:59;;;;;;;26.13;2.70;;;12.80;99.90;;;;;;5028400;28;20083;-61
2023/08/30 06:09:25;;;;;;;26.77;2.75;;;12.90;99.90;;;;;;5029544;28;20098;-60
2023/08/30 06:11:50;;;;;;;7.97;2.38;;;12.90;99.90;;;;;;5030848;28;20123;-61
2023/08/30 06:14:16;;;;;;;11.10;2.47;;;12.80;99.90;;;;;;5029875;28;20116;-61
2023/08/30 06:16:44;;;;;;;8.75;2.30;;;12.90;99.90;;;;;;5028702;28;20179;-58
2023/08/30 06:19:10;;;;;;;13.63;2.60;;;12.90;99.90;;;;;;5027619;28;20049;-60
2023/08/30 06:21:36;;;;;;;5.07;2.70;;;13.00;99.90;;;;;;5028328;28;20033;-59
2023/08/30 06:24:02;;;;;;;6.95;2.20;;;13.10;99.90;;;;;;5032380;28;20045;-61
2023/08/30 06:26:27;;;;;;;12.73;2.50;;;13.20;99.90;;;;;;5028039;28;20041;-59
2023/08/30 06:28:53;;;;;;;6.25;2.22;;;13.30;99.90;;;;;;5022031;28;20032;-59
2023/08/30 06:31:18;;;;;;;2.88;2.30;;;13.30;99.90;;;;;;5025271;28;20426;-62
2023/08/30 06:33:44;;;;;;;15.15;2.85;;;13.40;99.90;;;;;;5025496;28;20111;-59
2023/08/30 06:36:11;;;;;;;4.38;2.40;;;13.50;99.90;;;;;;5024813;28;20397;-60
2023/08/30 06:38:37;;;;;;;2.85;2.63;;;13.60;99.90;;;;;;5026332;28;20018;-59
2023/08/30 06:41:03;;;;;;;4.57;2.28;;;13.70;99.90;;;;;;5025932;28;20493;-61
2023/08/30 06:43:28;;;;;;;2.63;2.42;;;13.80;99.90;;;;;;5027981;28;20414;-60
2023/08/30 06:45:58;;;;;;;2.65;2.03;;;13.80;99.90;;;;;;5027623;28;20152;-60
2023/08/30 06:48:23;;;;;;;78.97;11.27;;;13.90;99.90;;;;;;5026770;28;20143;-58
2023/08/30 06:50:49;;;;;;;1695.13;140.35;;;14.20;99.90;;;;;;5026959;28;20113;-61
2023/08/30 06:53:15;;;;;;;1999.90;999.90;;;14.40;99.90;;;;;;5028170;28;20044;-59
2023/08/30 06:55:40;;;;;;;1999.90;999.90;;;14.60;99.90;;;;;;5027111;28;20037;-60
2023/08/30 06:58:06;;;;;;;1999.90;999.90;;;14.60;99.90;;;;;;5025950;28;20489;-60
2023/08/30 07:00:31;;;;;;;1999.90;999.90;;;14.60;99.90;;;;;;5024404;28;20048;-59
2023/08/30 07:02:58;;;;;;;1999.90;999.90;;;14.60;99.90;;;;;;5026246;28;20033;-59
2023/08/30 07:05:23;;;;;;;1115.25;589.53;;;14.60;99.90;;;;;;5028099;28;20036;-60
2023/08/30 07:07:49;;;;;;;5.50;2.55;;;14.50;99.90;;;;;;5030264;28;20033;-61
2023/08/30 07:10:15;;;;;;;3.47;3.15;;;14.40;99.90;;;;;;5027861;28;20033;-59
2023/08/30 07:12:40;;;;;;;2.83;2.63;;;14.40;99.90;;;;;;5031374;28;20029;-62
2023/08/30 07:15:07;;;;;;;1088.13;541.53;;;14.50;99.90;;;;;;5034240;28;20025;-61
2023/08/30 07:17:32;;;;;;;1525.95;759.97;;;14.60;99.90;;;;;;5022148;28;20037;-60
2023/08/30 07:19:58;;;;;;;1116.85;580.50;;;14.50;99.90;;;;;;5022931;28;20049;-61
2023/08/30 07:22:23;;;;;;;427.48;408.45;;;14.50;99.90;;;;;;5022269;28;20037;-61
2023/08/30 07:24:49;;;;;;;3.53;2.67;;;14.50;99.90;;;;;;5032052;28;20025;-60
2023/08/30 07:27:15;;;;;;;4.18;2.72;;;14.50;99.90;;;;;;5027403;28;20670;-59
2023/08/30 07:29:40;;;;;;;3.00;2.78;;;14.50;99.90;;;;;;5022230;28;20044;-61
2023/08/30 07:32:07;;;;;;;18.45;17.77;;;14.60;99.90;;;;;;5018600;28;20037;-60
2023/08/30 07:34:32;;;;;;;37.75;36.47;;;14.50;99.90;;;;;;5025996;28;20037;-61
2023/08/30 07:36:58;;;;;;;19.13;17.27;;;14.50;99.90;;;;;;5025654;28;20259;-59
2023/08/30 07:39:24;;;;;;;17.95;17.25;;;14.40;99.90;;;;;;5028206;28;20080;-61
2023/08/30 07:41:49;;;;;;;22.33;21.52;;;14.30;99.90;;;;;;5029062;28;20096;-61
2023/08/30 07:44:16;;;;;;;59.55;57.05;;;14.40;99.90;;;;;;5022417;28;20051;-59
2023/08/30 07:46:41;;;;;;;9.63;9.02;;;14.50;99.90;;;;;;5018902;28;20030;-58
2023/08/30 07:49:07;;;;;;;3.70;3.28;;;14.50;99.90;;;;;;5032141;28;20041;-58
2023/08/30 07:51:33;;;;;;;4.72;4.30;;;14.60;99.90;;;;;;5028322;28;20025;-60
2023/08/30 07:53:58;;;;;;;6.38;6.00;;;14.70;99.90;;;;;;5025877;28;20032;-58
2023/08/30 07:56:24;;;;;;;27.08;25.95;;;14.90;99.90;;;;;;5021133;28;20033;-58
2023/08/30 07:58:50;;;;;;;81.18;75.70;;;15.00;99.90;;;;;;5017612;28;20029;-61
2023/08/30 08:01:15;;;;;;;160.93;151.18;;;15.00;99.90;;;;;;5027086;28;20517;-60
2023/08/30 08:03:41;;;;;;;615.25;355.75;;;15.10;99.90;;;;;;5019733;28;20045;-59
2023/08/30 08:06:07;;;;;;;1999.90;999.90;;;15.10;99.90;;;;;;5020189;28;20029;-59
2023/08/30 08:08:32;;;;;;;1999.90;999.90;;;15.20;99.90;;;;;;5022607;28;20512;-58
2023/08/30 08:10:59;;;;;;;106.45;45.85;;;15.30;99.90;;;;;;5026116;28;20049;-60
2023/08/30 08:13:25;;;;;;;2.90;2.67;;;15.40;99.90;;;;;;5028394;28;20034;-59
2023/08/30 08:15:51;;;;;;;3.28;2.95;;;15.60;99.90;;;;;;5030714;28;20033;-58
2023/08/30 08:18:16;;;;;;;3.88;2.85;;;15.70;99.90;;;;;;5028054;28;20028;-61
2023/08/30 08:20:43;;;;;;;4.32;3.85;;;15.90;99.90;;;;;;5026341;28;20449;-60
2023/08/30 08:23:08;;;;;;;3.80;3.38;;;16.00;99.90;;;;;;5022645;28;20028;-58
2023/08/30 08:25:34;;;;;;;4.72;3.60;;;16.20;99.90;;;;;;5022212;28;20029;-59
2023/08/30 08:27:59;;;;;;;3.42;2.85;;;16.30;99.90;;;;;;5025970;28;20029;-61
2023/08/30 08:30:25;;;;;;;2.88;2.67;;;16.40;99.90;;;;;;5021424;28;20040;-58
2023/08/30 08:32:51;;;;;;;3.60;3.30;;;16.50;99.90;;;;;;5026161;28;20018;-60
2023/08/30 08:35:17;;;;;;;2.53;2.33;;;16.50;99.90;;;;;;5021379;28;20040;-61
2023/08/30 08:37:42;;;;;;;4.05;2.70;;;16.60;99.90;;;;;;5025762;28;20035;-60
2023/08/30 08:40:08;;;;;;;3.20;2.90;;;16.60;99.90;;;;;;5023569;28;20406;-62
2023/08/30 08:42:35;;;;;;;3.38;2.60;;;16.70;99.90;;;;;;5024621;28;20099;-59
2023/08/30 08:45:02;;;;;;;3.17;2.47;;;16.70;99.90;;;;;;5026710;28;20025;-62
2023/08/30 08:47:30;;;;;;;2.60;2.40;;;16.80;99.90;;;;;;5021559;28;20405;-62
2023/08/30 08:49:56;;;;;;;3.10;2.80;;;16.80;99.90;;;;;;5026771;28;20533;-60
2023/08/30 08:52:23;;;;;;;2.97;2.75;;;16.70;99.90;;;;;;5026248;28;20037;-60
2023/08/30 08:54:49;;;;;;;2.90;2.58;;;16.80;99.90;;;;;;5021867;28;20025;-62
2023/08/30 08:57:15;;;;;;;2.70;2.50;;;16.90;99.90;;;;;;5026348;28;20122;-60
2023/08/30 08:59:41;;;;;;;4.82;2.60;;;17.00;99.90;;;;;;5025866;28;20101;-60
2023/08/30 09:02:10;;;;;;;3.22;3.03;;;17.10;99.90;;;;;;5029291;28;20129;-59
2023/08/30 09:04:36;;;;;;;2.70;2.50;;;17.10;99.90;;;;;;5029611;28;20497;-59
2023/08/30 09:07:02;;;;;;;3.35;3.10;;;17.20;99.90;;;;;;5026155;28;20040;-60
2023/08/30 09:09:27;;;;;;;4.28;2.92;;;17.20;99.90;;;;;;5028879;28;20038;-61
2023/08/30 09:11:53;;;;;;;3.72;2.35;;;17.00;99.90;;;;;;5028498;28;20022;-59
2023/08/30 09:14:19;;;;;;;2.65;2.45;;;16.90;99.90;;;;;;5026972;28;20029;-62
2023/08/30 09:17:02;;;;;;;3.25;3.00;;;17.00;99.90;;;;;;5027635;28;20057;-59
2023/08/30 09:19:29;;;;;;;3.53;2.97;;;17.00;99.90;;;;;;5025457;28;20420;-59
2023/08/30 09:21:56;;;;;;;3.20;2.85;;;16.90;99.90;;;;;;5025641;28;20037;-58
2023/08/30 09:24:22;;;;;;;3.17;2.88;;;16.90;99.90;;;;;;5023280;28;20041;-59
2023/08/30 09:26:52;;;;;;;2.75;2.47;;;17.00;99.90;;;;;;5027235;28;20041;-59
2023/08/30 09:29:20;;;;;;;3.20;3.00;;;17.20;99.90;;;;;;5027336;28;20049;-61
2023/08/30 09:31:46;;;;;;;3.25;2.95;;;17.30;99.90;;;;;;5022988;28;20057;-60
2023/08/30 09:34:12;;;;;;;3.40;3.10;;;17.50;99.90;;;;;;5031305;28;20040;-61
2023/08/30 09:36:39;;;;;;;3.45;3.25;;;17.50;99.90;;;;;;5027302;28;20033;-60
2023/08/30 09:39:09;;;;;;;2.95;2.75;;;17.50;99.90;;;;;;5029154;28;20111;-62
2023/08/30 09:41:56;;;;;;;3.58;3.28;;;17.60;99.90;;;;;;5029858;28;20029;-60
2023/08/30 09:44:22;;;;;;;3.65;3.08;;;17.50;99.90;;;;;;5028356;28;20025;-61
2023/08/30 09:46:56;;;;;;;3.58;2.40;;;17.50;99.90;;;;;;5031024;28;20060;-61
2023/08/30 09:49:24;;;;;;;3.17;2.88;;;17.60;99.90;;;;;;5010037;28;20040;-61
2023/08/30 09:51:51;;;;;;;2.60;2.40;;;17.80;99.90;;;;;;5027966;28;20029;-62
2023/08/30 09:54:24;;;;;;;2.75;2.55;;;17.90;99.90;;;;;;5030364;28;20103;-61
2023/08/30 09:56:53;;;;;;;3.03;2.83;;;17.90;99.90;;;;;;5023172;28;20508;-63
2023/08/30 09:59:19;;;;;;;6.95;6.45;;;17.90;99.90;;;;;;5032122;28;20033;-60
2023/08/30 10:01:48;;;;;;;2.28;2.08;;;17.90;99.90;;;;;;5024726;28;20083;-60
2023/08/30 10:04:15;;;;;;;6.78;6.38;;;17.90;99.90;;;;;;5028681;28;20025;-60
2023/08/30 10:06:41;;;;;;;2.53;2.10;;;17.80;99.90;;;;;;5028387;28;20040;-62
2023/08/30 10:09:08;;;;;;;2.25;2.05;;;17.80;99.90;;;;;;5034963;28;20024;-62
2023/08/30 10:11:35;;;;;;;2.50;2.30;;;18.00;99.90;;;;;;5030471;28;20017;-61
2023/08/30 10:14:03;;;;;;;3.92;2.95;;;18.10;99.90;;;;;;5024082;28;20440;-61
2023/08/30 10:16:51;;;;;;;2.50;2.30;;;18.20;99.90;;;;;;5023261;28;20474;-61
2023/08/30 10:19:24;;;;;;;3.35;2.58;;;18.10;99.90;;;;;;5033937;28;20949;-61
2023/08/30 10:21:55;;;;;;;2.85;2.38;;;18.20;99.90;;;;;;5030998;28;20120;-62
2023/08/30 10:24:22;;;;;;;2.38;1.95;;;18.30;99.90;;;;;;5027314;28;20030;-61
2023/08/30 10:26:48;;;;;;;3.08;2.72;;;18.30;99.90;;;;;;5024995;28;20040;-62
2023/08/30 10:29:16;;;;;;;3.10;2.83;;;18.40;99.90;;;;;;5008297;28;20037;-62
2023/08/30 10:31:42;;;;;;;2.13;2.00;;;18.40;99.90;;;;;;5025368;28;20030;-62
2023/08/30 10:34:19;;;;;;;2.10;1.85;;;18.60;99.90;;;;;;5028253;28;20061;-62
2023/08/30 10:36:45;;;;;;;2.05;1.85;;;18.60;99.90;;;;;;5025755;28;20116;-61
2023/08/30 10:39:14;;;;;;;2.47;2.28;;;18.70;99.90;;;;;;5026894;28;20108;-62
2023/08/30 10:41:56;;;;;;;2.38;2.20;;;18.60;99.90;;;;;;5022383;28;20350;-60
2023/08/30 10:44:23;;;;;;;2.17;1.98;;;18.60;99.90;;;;;;5024379;28;20041;-61
2023/08/30 10:46:54;;;;;;;15.15;2.80;;;18.60;99.90;;;;;;5025841;28;20108;-62
2023/08/30 10:49:19;;;;;;;2.92;2.60;;;18.70;99.90;;;;;;5026395;28;20076;-59
2023/08/30 10:51:47;;;;;;;2.40;2.20;;;18.80;99.90;;;;;;5024740;28;20046;-60
2023/08/30 10:54:17;;;;;;;2.90;2.60;;;18.90;99.90;;;;;;5027454;28;20036;-62
2023/08/30 10:57:02;;;;;;;3.65;2.72;;;19.10;99.90;;;;;;5028357;28;20625;-62
2023/08/30 10:59:29;;;;;;;3.55;3.10;;;19.20;99.90;;;;;;5025216;28;20033;-62
2023/08/30 11:01:58;;;;;;;3.75;2.92;;;19.20;99.90;;;;;;5020158;28;20037;-62
2023/08/30 11:04:24;;;;;;;5.25;3.40;;;19.30;99.90;;;;;;5023453;28;20056;-61
2023/08/30 11:06:51;;;;;;;3.58;3.28;;;19.30;99.90;;;;;;5027687;28;20128;-62
2023/08/30 11:09:19;;;;;;;3.45;3.15;;;19.40;99.90;;;;;;5024059;28;20033;-61
2023/08/30 11:11:45;;;;;;;19.77;15.38;;;19.30;99.90;;;;;;5020998;28;20105;-62
2023/08/30 11:14:11;;;;;;;8.07;4.45;;;19.30;99.90;;;;;;5022631;28;20395;-61
2023/08/30 11:16:38;;;;;;;5.80;4.68;;;19.40;99.90;;;;;;5023694;28;20351;-61
2023/08/30 11:19:05;;;;;;;4.43;4.00;;;19.50;99.90;;;;;;5021573;28;20029;-61
2023/08/30 11:21:32;;;;;;;4.57;3.60;;;19.60;99.90;;;;;;5023674;28;20034;-62
2023/08/30 11:23:58;;;;;;;6.88;4.32;;;19.70;99.90;;;;;;5024354;28;20076;-61
2023/08/30 11:26:23;;;;;;;3.92;3.58;;;19.80;99.90;;;;;;5024636;28;20487;-61
2023/08/30 11:28:51;;;;;;;4.10;3.28;;;19.90;99.90;;;;;;5022320;28;20389;-61
2023/08/30 11:31:26;;;;;;;5.32;3.60;;;20.00;99.90;;;;;;5021816;28;20036;-60
2023/08/30 11:33:56;;;;;;;4.55;3.78;;;20.00;99.90;;;;;;5023707;28;20033;-61
2023/08/30 11:36:24;;;;;;;5.22;3.95;;;19.90;99.90;;;;;;5024603;28;20501;-62
2023/08/30 11:38:50;;;;;;;4.53;3.03;;;19.70;99.90;;;;;;5020259;28;20058;-61
2023/08/30 11:41:16;;;;;;;4.90;3.75;;;19.60;99.90;;;;;;5025305;28;20045;-60
2023/08/30 11:43:42;;;;;;;5.13;3.92;;;19.50;99.90;;;;;;5027112;28;20071;-61
2023/08/30 11:46:12;;;;;;;5.18;3.25;;;19.40;99.90;;;;;;5027417;28;20144;-60
2023/08/30 11:48:39;;;;;;;4.53;3.25;;;19.40;99.90;;;;;;5027558;28;20101;-60
2023/08/30 11:51:06;;;;;;;3.40;2.92;;;19.30;99.90;;;;;;5024260;28;20022;-62
2023/08/30 11:53:32;;;;;;;3.40;2.90;;;19.50;99.90;;;;;;5021039;28;20026;-62
2023/08/30 11:55:58;;;;;;;5.55;2.63;;;19.50;99.90;;;;;;5025321;28;20124;-61
2023/08/30 11:58:23;;;;;;;2.63;2.33;;;19.70;99.90;;;;;;5025341;28;20429;-60
2023/08/30 12:00:51;;;;;;;3.63;2.50;;;19.90;99.90;;;;;;5027539;28;20041;-62
2023/08/30 12:03:16;;;;;;;3.13;2.72;;;20.00;99.90;;;;;;5023600;28;20037;-60
2023/08/30 12:05:50;;;;;;;4.40;2.58;;;20.00;99.90;;;;;;5021172;28;20037;-61
2023/08/30 12:08:34;;;;;;;5.72;4.70;;;20.00;99.90;;;;;;5024667;28;20025;-61
2023/08/30 12:11:01;;;;;;;2.88;2.65;;;20.00;99.90;;;;;;5022919;28;20065;-59
2023/08/30 12:13:34;;;;;;;2.88;2.53;;;20.00;99.90;;;;;;5023167;28;20381;-61
2023/08/30 12:16:01;;;;;;;2.90;2.63;;;19.80;99.90;;;;;;5025319;28;20040;-61
2023/08/30 12:18:32;;;;;;;3.05;2.55;;;19.90;99.90;;;;;;5024974;28;20346;-61
2023/08/30 12:21:04;;;;;;;12.93;2.53;;;19.90;99.90;;;;;;5025673;28;20116;-61
2023/08/30 12:23:32;;;;;;;3.85;2.50;;;19.90;99.90;;;;;;5029564;28;20117;-61
2023/08/30 12:26:01;;;;;;;2.40;1.70;;;19.90;99.90;;;;;;5023282;28;20018;-62